Time;durP1;ratioP1;P1;durP2;ratioP2;P2;SDS_P1;SDS_P2;PMS_P1;PMS_P2;Temp;Humidity;BMP_temperature;BMP_pressure;BME280_temperature;BME280_humidity;BME280_pressure;Samples;Min_cycle;Max_cycle;Signal;HPM_P1;HPM_P2
2021/09/02 00:01:28;;;;;;;4.88;2.15;;;15.70;99.90;;;;;;4871909;29;20150;-83
2021/09/02 00:03:54;;;;;;;4.15;1.48;;;15.70;99.90;;;;;;4841299;29;20056;-83
2021/09/02 00:06:20;;;;;;;6.00;2.28;;;15.60;99.90;;;;;;4841341;29;20625;-83
2021/09/02 00:08:45;;;;;;;5.85;2.03;;;15.60;99.90;;;;;;4853412;29;20370;-82
2021/09/02 00:11:11;;;;;;;5.95;2.08;;;15.60;99.90;;;;;;4853373;29;20034;-82
2021/09/02 00:13:37;;;;;;;5.30;1.80;;;15.60;99.90;;;;;;4853187;29;20073;-83
2021/09/02 00:16:03;;;;;;;4.80;2.03;;;15.60;99.90;;;;;;4837807;29;20059;-83
2021/09/02 00:18:29;;;;;;;6.35;2.28;;;15.60;99.90;;;;;;4868043;29;20037;-82
2021/09/02 00:20:55;;;;;;;5.18;2.03;;;15.60;99.90;;;;;;4871546;29;20609;-83
2021/09/02 00:23:22;;;;;;;4.53;1.85;;;15.60;99.90;;;;;;4841106;29;20041;-82
2021/09/02 00:25:47;;;;;;;5.70;2.25;;;15.60;99.90;;;;;;4876413;29;20063;-83
2021/09/02 00:28:13;;;;;;;5.95;2.22;;;15.60;99.90;;;;;;4963850;29;20028;-83
2021/09/02 00:30:39;;;;;;;3.72;1.90;;;15.70;99.90;;;;;;4931820;29;20039;-83
2021/09/02 00:33:05;;;;;;;6.50;1.73;;;15.70;99.90;;;;;;4964054;29;20043;-82
2021/09/02 00:35:31;;;;;;;5.05;2.42;;;15.70;99.90;;;;;;4932050;29;20450;-83
2021/09/02 00:37:57;;;;;;;6.75;2.35;;;15.60;99.90;;;;;;4947874;29;20051;-83
2021/09/02 00:40:23;;;;;;;4.68;1.98;;;15.60;99.90;;;;;;4931593;29;20050;-83
2021/09/02 00:42:48;;;;;;;5.22;2.25;;;15.60;99.90;;;;;;4947734;29;20032;-83
2021/09/02 00:45:14;;;;;;;4.85;1.88;;;15.60;99.90;;;;;;4963462;29;20043;-83
2021/09/02 00:47:40;;;;;;;3.63;1.77;;;15.60;99.90;;;;;;4950073;28;20054;-84
2021/09/02 00:50:06;;;;;;;8.95;2.20;;;15.60;99.90;;;;;;4950579;29;20046;-83
2021/09/02 00:52:33;;;;;;;5.63;2.30;;;15.60;99.90;;;;;;4950723;29;20027;-83
2021/09/02 00:55:03;;;;;;;4.97;2.15;;;15.70;99.90;;;;;;4967756;28;20479;-83
2021/09/02 00:57:30;;;;;;;3.33;1.85;;;15.70;99.90;;;;;;4967815;29;20050;-82
2021/09/02 01:00:16;;;;;;;3.83;1.92;;;15.60;99.90;;;;;;4950123;29;20161;-83
2021/09/02 01:02:43;;;;;;;5.15;2.33;;;15.60;99.90;;;;;;4934527;29;20035;-83
2021/09/02 01:05:10;;;;;;;6.47;2.72;;;15.60;99.90;;;;;;4967629;28;20490;-83
2021/09/02 01:07:37;;;;;;;6.55;3.08;;;15.60;99.90;;;;;;4938133;28;20069;-83
2021/09/02 01:10:05;;;;;;;4.50;2.50;;;15.60;99.90;;;;;;4954776;28;20090;-83
2021/09/02 01:12:33;;;;;;;5.78;3.47;;;15.60;99.90;;;;;;4955017;28;20098;-83
2021/09/02 01:15:06;;;;;;;7.07;2.92;;;15.60;99.90;;;;;;4986234;28;20027;-83
2021/09/02 01:17:32;;;;;;;5.78;2.97;;;15.60;99.90;;;;;;4966150;29;20035;-83
2021/09/02 01:19:58;;;;;;;7.78;3.30;;;15.60;99.90;;;;;;4982374;28;20034;-83
2021/09/02 01:22:26;;;;;;;6.30;3.15;;;15.60;99.90;;;;;;4966219;29;20038;-83
2021/09/02 01:25:00;;;;;;;6.38;3.40;;;15.60;99.90;;;;;;4966167;29;20043;-83
2021/09/02 01:27:27;;;;;;;6.78;3.90;;;15.60;99.90;;;;;;4965461;28;20061;-83
2021/09/02 01:29:57;;;;;;;6.70;3.72;;;15.60;99.90;;;;;;4965853;28;20178;-83
2021/09/02 01:32:26;;;;;;;6.80;3.25;;;15.60;99.90;;;;;;4966226;29;20042;-83
2021/09/02 01:34:56;;;;;;;8.43;4.28;;;15.60;99.90;;;;;;4965982;29;20067;-83
2021/09/02 01:37:23;;;;;;;7.20;3.17;;;15.60;99.90;;;;;;4982124;28;20039;-83
2021/09/02 01:39:50;;;;;;;8.40;3.47;;;15.70;99.90;;;;;;4965719;28;20035;-83
2021/09/02 01:42:15;;;;;;;7.15;3.75;;;15.70;99.90;;;;;;4949965;29;20046;-83
2021/09/02 01:44:42;;;;;;;6.47;3.38;;;15.60;99.90;;;;;;4967024;28;20027;-83
2021/09/02 01:47:22;;;;;;;6.65;4.00;;;15.60;99.90;;;;;;4965882;29;20075;-83
2021/09/02 01:49:48;;;;;;;8.30;4.00;;;15.60;99.90;;;;;;4981847;28;20044;-83
2021/09/02 01:52:14;;;;;;;7.22;3.80;;;15.60;99.90;;;;;;4966243;29;20031;-83
2021/09/02 01:54:40;;;;;;;8.02;4.05;;;15.60;99.90;;;;;;4965975;28;20055;-83
2021/09/02 01:57:06;;;;;;;6.70;4.25;;;15.60;99.90;;;;;;4949978;29;20031;-83
2021/09/02 01:59:32;;;;;;;9.75;4.88;;;15.60;99.90;;;;;;4965757;29;20039;-83
2021/09/02 02:01:57;;;;;;;12.07;5.72;;;15.60;99.90;;;;;;4965813;29;20035;-83
2021/09/02 02:04:23;;;;;;;6.90;4.78;;;15.60;99.90;;;;;;4965939;28;20469;-84
2021/09/02 02:06:48;;;;;;;9.95;4.80;;;15.60;99.90;;;;;;4967094;28;20058;-83
2021/09/02 02:09:14;;;;;;;8.23;4.72;;;15.60;99.90;;;;;;4981745;28;20207;-83
2021/09/02 02:11:40;;;;;;;7.72;4.40;;;15.60;99.90;;;;;;4965872;29;20036;-83
2021/09/02 02:14:05;;;;;;;8.95;5.30;;;15.60;99.90;;;;;;4965987;29;20039;-83
2021/09/02 02:16:31;;;;;;;6.13;3.92;;;15.60;99.90;;;;;;4949527;29;20563;-83
2021/09/02 02:18:57;;;;;;;5.55;3.50;;;15.50;99.90;;;;;;4949901;29;20403;-83
2021/09/02 02:21:22;;;;;;;8.52;3.95;;;15.50;99.90;;;;;;4949669;29;20039;-83
2021/09/02 02:23:48;;;;;;;10.27;4.47;;;15.50;99.90;;;;;;4965800;29;20095;-83
2021/09/02 02:26:13;;;;;;;8.20;4.53;;;15.40;99.90;;;;;;4933855;29;20038;-83
2021/09/02 02:28:39;;;;;;;7.10;4.40;;;15.40;99.90;;;;;;4933908;29;20498;-83
2021/09/02 02:31:04;;;;;;;7.07;4.30;;;15.30;99.90;;;;;;4965350;28;20032;-83
2021/09/02 02:33:30;;;;;;;6.38;4.20;;;15.30;99.90;;;;;;4965785;29;20090;-83
2021/09/02 02:35:56;;;;;;;7.15;4.05;;;15.30;99.90;;;;;;4933861;29;20399;-82
2021/09/02 02:38:21;;;;;;;7.90;4.07;;;15.20;99.90;;;;;;4950390;29;20027;-83
2021/09/02 02:40:47;;;;;;;8.48;4.53;;;15.20;99.90;;;;;;4953060;29;20053;-83
2021/09/02 02:43:14;;;;;;;7.97;4.20;;;15.10;99.90;;;;;;4953108;29;20036;-83
2021/09/02 02:45:39;;;;;;;7.60;3.40;;;15.10;99.90;;;;;;4937197;29;20039;-83
2021/09/02 02:48:05;;;;;;;7.45;4.07;;;15.20;99.90;;;;;;4952324;29;20055;-83
2021/09/02 02:50:31;;;;;;;6.72;3.92;;;15.10;99.90;;;;;;4952623;29;20031;-83
2021/09/02 02:52:58;;;;;;;6.45;3.85;;;15.10;99.90;;;;;;4952781;29;20118;-83
2021/09/02 02:55:23;;;;;;;7.32;3.38;;;15.00;99.90;;;;;;4968724;29;20027;-83
2021/09/02 02:57:49;;;;;;;8.02;3.90;;;15.10;99.90;;;;;;4937809;29;20094;-83
2021/09/02 03:00:15;;;;;;;6.60;3.90;;;15.10;99.90;;;;;;4936661;29;20138;-83
2021/09/02 03:02:40;;;;;;;9.38;4.60;;;15.00;99.90;;;;;;4968547;29;20039;-83
2021/09/02 03:05:08;;;;;;;7.13;4.50;;;15.10;99.90;;;;;;4936811;29;20051;-83
2021/09/02 03:07:34;;;;;;;6.80;4.32;;;15.00;99.90;;;;;;4939666;28;20031;-83
2021/09/02 03:10:01;;;;;;;8.05;4.95;;;15.00;99.90;;;;;;4971517;28;20045;-83
2021/09/02 03:12:27;;;;;;;8.30;4.60;;;15.00;99.90;;;;;;4971832;28;20042;-83
2021/09/02 03:14:52;;;;;;;8.95;5.10;;;15.00;99.90;;;;;;4955473;28;20030;-83
2021/09/02 03:17:18;;;;;;;8.48;4.60;;;15.00;99.90;;;;;;4949125;29;20043;-83
2021/09/02 03:19:43;;;;;;;8.77;4.60;;;15.00;99.90;;;;;;4952124;29;20031;-83
2021/09/02 03:22:09;;;;;;;6.55;4.32;;;15.00;99.90;;;;;;4969510;29;20118;-84
2021/09/02 03:24:35;;;;;;;9.05;4.82;;;15.00;99.90;;;;;;4936378;29;20041;-83
2021/09/02 03:27:00;;;;;;;9.07;4.97;;;14.90;99.90;;;;;;4936179;29;20032;-84
2021/09/02 03:29:26;;;;;;;7.82;4.63;;;14.90;99.90;;;;;;4967956;29;20035;-83
2021/09/02 03:31:52;;;;;;;11.45;5.32;;;14.90;99.90;;;;;;4936126;29;20064;-83
2021/09/02 03:34:18;;;;;;;8.82;5.20;;;14.90;99.90;;;;;;4969089;28;20109;-83
2021/09/02 03:36:45;;;;;;;7.97;4.20;;;14.90;99.90;;;;;;4936140;29;20387;-84
2021/09/02 03:39:12;;;;;;;6.75;3.95;;;14.90;99.90;;;;;;4951622;29;20027;-83
2021/09/02 03:41:39;;;;;;;9.10;5.13;;;14.90;99.90;;;;;;4951908;29;20050;-84
2021/09/02 03:44:05;;;;;;;10.90;4.68;;;14.90;99.90;;;;;;4935980;29;20045;-84
2021/09/02 03:46:51;;;;;;;8.38;4.65;;;14.90;99.90;;;;;;4935613;29;20122;-84
2021/09/02 03:49:17;;;;;;;7.82;4.50;;;14.90;99.90;;;;;;4890034;29;20045;-84
2021/09/02 03:51:42;;;;;;;7.25;4.10;;;14.80;99.90;;;;;;4889939;29;20048;-84
2021/09/02 03:54:08;;;;;;;8.95;4.53;;;14.90;99.90;;;;;;4886469;29;20052;-84
2021/09/02 03:56:33;;;;;;;8.80;4.55;;;14.80;99.90;;;;;;4890590;29;20045;-83
2021/09/02 03:58:59;;;;;;;8.25;4.72;;;14.70;99.90;;;;;;4890297;29;20029;-83
2021/09/02 04:01:25;;;;;;;9.38;3.92;;;14.80;99.90;;;;;;4890221;29;20065;-83
2021/09/02 04:03:52;;;;;;;6.13;4.10;;;14.70;99.90;;;;;;4890103;29;20390;-84
2021/09/02 04:06:18;;;;;;;9.50;5.00;;;14.70;99.90;;;;;;4890394;29;20069;-84
2021/09/02 04:08:43;;;;;;;7.38;4.88;;;14.70;99.90;;;;;;4880745;29;20065;-83
2021/09/02 04:11:09;;;;;;;8.07;4.72;;;14.70;99.90;;;;;;4874662;29;20064;-84
2021/09/02 04:13:35;;;;;;;7.10;4.10;;;14.70;99.90;;;;;;4890085;29;20041;-83
2021/09/02 04:16:00;;;;;;;9.77;5.38;;;14.70;99.90;;;;;;4874772;29;20033;-84
2021/09/02 04:18:26;;;;;;;11.00;4.82;;;14.70;99.90;;;;;;4871172;29;20069;-84
2021/09/02 04:20:51;;;;;;;7.93;5.00;;;14.70;99.90;;;;;;4871457;29;20053;-84
2021/09/02 04:23:17;;;;;;;9.02;4.90;;;14.60;99.90;;;;;;4855650;29;20066;-84
2021/09/02 04:25:43;;;;;;;7.35;4.43;;;14.60;99.90;;;;;;4871211;29;20044;-84
2021/09/02 04:28:08;;;;;;;11.65;6.07;;;14.60;99.90;;;;;;4929946;29;20056;-84
2021/09/02 04:30:34;;;;;;;11.02;5.30;;;14.60;99.90;;;;;;4944501;29;20070;-84
2021/09/02 04:33:01;;;;;;;11.25;4.95;;;14.60;99.90;;;;;;4944622;29;20084;-83
2021/09/02 04:35:28;;;;;;;10.77;5.72;;;14.50;99.90;;;;;;4944143;29;20040;-84
2021/09/02 04:37:54;;;;;;;10.82;5.57;;;14.50;99.90;;;;;;4943648;29;20032;-84
2021/09/02 04:40:19;;;;;;;7.90;5.20;;;14.50;99.90;;;;;;4931482;29;20072;-84
2021/09/02 04:42:45;;;;;;;11.43;5.55;;;14.50;99.90;;;;;;4963810;29;20047;-84
2021/09/02 04:45:12;;;;;;;8.57;5.40;;;14.40;99.90;;;;;;4939358;29;20043;-84
2021/09/02 04:47:40;;;;;;;11.10;5.07;;;14.40;99.90;;;;;;4959385;28;20347;-83
2021/09/02 04:50:08;;;;;;;9.85;5.15;;;14.50;99.90;;;;;;4950741;28;20058;-83
2021/09/02 04:52:34;;;;;;;10.90;5.72;;;14.50;99.90;;;;;;4953977;28;20130;-83
2021/09/02 04:55:00;;;;;;;11.55;6.07;;;14.50;99.90;;;;;;4969894;28;20065;-84
2021/09/02 04:57:25;;;;;;;11.88;6.18;;;14.50;99.90;;;;;;4969933;28;20130;-84
2021/09/02 04:59:51;;;;;;;11.43;5.68;;;14.40;99.90;;;;;;4965425;28;20067;-84
2021/09/02 05:02:17;;;;;;;10.57;5.72;;;14.40;99.90;;;;;;4947482;29;20130;-84
2021/09/02 05:04:42;;;;;;;13.20;6.43;;;14.40;99.90;;;;;;4946880;29;20024;-84
2021/09/02 05:07:08;;;;;;;10.50;6.05;;;14.40;99.90;;;;;;4947708;29;20042;-84
2021/09/02 05:09:35;;;;;;;14.35;6.90;;;14.40;99.90;;;;;;4946299;29;20032;-83
2021/09/02 05:12:00;;;;;;;11.05;5.97;;;14.40;99.90;;;;;;4962572;29;20039;-84
2021/09/02 05:14:29;;;;;;;11.65;6.22;;;14.40;99.90;;;;;;4962739;29;20043;-88
2021/09/02 05:16:55;;;;;;;11.30;5.38;;;14.40;99.90;;;;;;4949485;29;20035;-88
2021/09/02 05:19:20;;;;;;;10.73;5.55;;;14.40;99.90;;;;;;4949868;29;20031;-88
2021/09/02 05:21:46;;;;;;;11.25;5.97;;;14.40;99.90;;;;;;4981557;28;20050;-88
2021/09/02 05:24:11;;;;;;;10.65;5.55;;;14.40;99.90;;;;;;4933752;29;20042;-88
2021/09/02 05:26:37;;;;;;;10.02;5.30;;;14.40;99.90;;;;;;4934156;29;20102;-89
2021/09/02 05:29:03;;;;;;;12.13;5.65;;;14.30;99.90;;;;;;4934179;29;20094;-89
2021/09/02 05:31:29;;;;;;;11.43;5.38;;;14.30;99.90;;;;;;4934033;29;20032;-89
2021/09/02 05:33:54;;;;;;;10.20;5.80;;;14.40;99.90;;;;;;4933739;29;20086;-89
2021/09/02 05:36:20;;;;;;;11.38;5.50;;;14.40;99.90;;;;;;4933641;29;20039;-89
2021/09/02 05:38:46;;;;;;;9.35;5.32;;;14.30;99.90;;;;;;4933674;29;20035;-88
2021/09/02 05:41:12;;;;;;;13.82;6.38;;;14.40;99.90;;;;;;4965591;29;20046;-88
2021/09/02 05:43:37;;;;;;;10.50;5.38;;;14.40;99.90;;;;;;4965902;29;20391;-89
2021/09/02 05:46:03;;;;;;;8.77;4.38;;;14.40;99.90;;;;;;4965868;28;20035;-88
2021/09/02 05:48:29;;;;;;;12.30;5.38;;;14.30;99.90;;;;;;4965684;29;20047;-89
2021/09/02 05:50:56;;;;;;;12.35;6.15;;;14.30;99.90;;;;;;4949976;29;20047;-89
2021/09/02 05:53:22;;;;;;;9.40;4.85;;;14.40;99.90;;;;;;4950008;29;20055;-89
2021/09/02 05:55:50;;;;;;;9.85;4.88;;;14.40;99.90;;;;;;4965792;29;20035;-89
2021/09/02 05:58:16;;;;;;;11.10;5.25;;;14.40;99.90;;;;;;4965965;28;20039;-88
2021/09/02 06:00:42;;;;;;;9.63;5.22;;;14.40;99.90;;;;;;4965393;28;20058;-89
2021/09/02 06:03:07;;;;;;;7.32;4.60;;;14.40;99.90;;;;;;4967371;29;20468;-88
2021/09/02 06:05:33;;;;;;;9.65;5.53;;;14.50;99.90;;;;;;4965797;29;20032;-89
2021/09/02 06:07:58;;;;;;;9.02;5.00;;;14.50;99.90;;;;;;4956045;28;20076;-88
2021/09/02 06:10:24;;;;;;;9.50;4.97;;;14.60;99.90;;;;;;4952833;28;20026;-89
2021/09/02 06:12:49;;;;;;;10.40;4.50;;;14.60;99.90;;;;;;4968916;28;20396;-88
2021/09/02 06:15:16;;;;;;;11.95;5.57;;;14.60;99.90;;;;;;4956838;28;20038;-88
2021/09/02 06:17:41;;;;;;;11.25;6.05;;;14.60;99.90;;;;;;4963285;29;20070;-88
2021/09/02 06:20:08;;;;;;;11.07;5.40;;;14.60;99.90;;;;;;4970202;28;20059;-89
2021/09/02 06:22:34;;;;;;;11.18;6.03;;;14.70;99.90;;;;;;4937491;29;20042;-88
2021/09/02 06:25:00;;;;;;;12.85;5.32;;;14.70;99.90;;;;;;4937330;29;20031;-88
2021/09/02 06:27:27;;;;;;;10.82;5.40;;;14.80;99.90;;;;;;4937549;29;20038;-88
2021/09/02 06:29:52;;;;;;;10.07;4.78;;;14.90;99.90;;;;;;4937146;29;20036;-88
2021/09/02 06:32:18;;;;;;;13.55;6.00;;;15.00;99.90;;;;;;4953335;29;20041;-88
2021/09/02 06:34:43;;;;;;;9.30;5.57;;;15.00;99.90;;;;;;4968842;28;20051;-88
2021/09/02 06:37:09;;;;;;;10.15;5.15;;;15.10;99.90;;;;;;4937307;29;20075;-88
2021/09/02 06:39:35;;;;;;;10.95;4.80;;;15.20;99.90;;;;;;4968949;29;20039;-88
2021/09/02 06:42:01;;;;;;;11.50;4.90;;;15.30;99.90;;;;;;4936938;29;20043;-88
2021/09/02 06:44:26;;;;;;;9.23;5.05;;;15.40;99.90;;;;;;4952882;29;20106;-87
2021/09/02 06:46:52;;;;;;;8.40;4.40;;;15.50;99.90;;;;;;4936705;29;20055;-87
2021/09/02 06:49:19;;;;;;;8.45;4.60;;;15.70;99.90;;;;;;4936859;29;20051;-88
2021/09/02 06:51:45;;;;;;;12.75;4.13;;;15.80;99.90;;;;;;4936886;29;20486;-88
2021/09/02 06:54:10;;;;;;;10.32;4.57;;;15.80;99.90;;;;;;4937047;29;20174;-88
2021/09/02 06:56:36;;;;;;;8.48;4.70;;;15.90;99.90;;;;;;4952720;29;20404;-88
2021/09/02 06:59:02;;;;;;;7.90;4.43;;;16.00;99.90;;;;;;4952471;29;20027;-87
2021/09/02 07:01:28;;;;;;;6.20;3.70;;;16.20;99.90;;;;;;4952107;29;20098;-88
2021/09/02 07:03:54;;;;;;;11.27;4.93;;;16.20;99.90;;;;;;4936771;29;20031;-87
2021/09/02 07:06:19;;;;;;;8.43;3.97;;;16.20;99.90;;;;;;4936404;29;20082;-88
2021/09/02 07:08:45;;;;;;;7.82;3.90;;;16.50;99.90;;;;;;4948643;28;20041;-86
2021/09/02 07:11:13;;;;;;;6.53;3.40;;;16.50;99.90;;;;;;4955546;28;20031;-88
2021/09/02 07:13:39;;;;;;;9.57;3.90;;;16.70;99.90;;;;;;4971480;28;20035;-87
2021/09/02 07:16:05;;;;;;;6.95;3.22;;;16.80;99.90;;;;;;4955480;28;20582;-87
2021/09/02 07:18:31;;;;;;;7.85;3.15;;;16.80;99.90;;;;;;4971462;28;20055;-88
2021/09/02 07:20:56;;;;;;;5.47;3.25;;;17.00;99.90;;;;;;4936033;29;20047;-87
2021/09/02 07:23:22;;;;;;;10.43;4.20;;;17.00;99.90;;;;;;4936239;29;20522;-87
2021/09/02 07:25:48;;;;;;;9.25;3.65;;;17.00;99.90;;;;;;4934839;29;20110;-87
2021/09/02 07:28:14;;;;;;;4.90;2.53;;;17.10;99.90;;;;;;4935984;29;20181;-87
2021/09/02 07:30:41;;;;;;;5.93;3.13;;;17.20;99.90;;;;;;4968091;29;20063;-87
2021/09/02 07:33:07;;;;;;;7.43;3.00;;;17.30;99.90;;;;;;4935984;29;20504;-87
2021/09/02 07:35:32;;;;;;;7.65;2.95;;;17.40;99.90;;;;;;4951832;29;20096;-87
2021/09/02 07:37:58;;;;;;;6.70;3.17;;;17.40;99.90;;;;;;4935906;29;20027;-86
2021/09/02 07:40:24;;;;;;;7.07;2.58;;;17.50;99.90;;;;;;4935620;29;20103;-86
2021/09/02 07:42:49;;;;;;;6.57;2.70;;;17.70;99.90;;;;;;4935870;29;20034;-86
2021/09/02 07:45:15;;;;;;;5.97;2.67;;;17.70;99.90;;;;;;4935898;29;20039;-87
2021/09/02 07:47:41;;;;;;;5.53;2.60;;;18.00;99.90;;;;;;4935337;29;20058;-87
2021/09/02 07:50:07;;;;;;;6.03;2.42;;;18.00;99.90;;;;;;4967383;29;20035;-86
2021/09/02 07:52:38;;;;;;;6.00;2.13;;;18.20;99.90;;;;;;4935371;29;20051;-87
2021/09/02 07:55:05;;;;;;;5.15;2.20;;;18.30;99.90;;;;;;4935728;29;20041;-86
2021/09/02 07:57:30;;;;;;;6.82;2.33;;;18.20;99.90;;;;;;4967160;29;20035;-85
2021/09/02 07:59:56;;;;;;;5.35;2.20;;;18.10;99.90;;;;;;4935172;29;20066;-86
2021/09/02 08:02:22;;;;;;;9.55;2.65;;;18.10;99.90;;;;;;4935371;29;20031;-86
2021/09/02 08:04:47;;;;;;;6.32;2.33;;;18.20;99.90;;;;;;4967257;28;20082;-86
2021/09/02 08:07:13;;;;;;;8.15;2.17;;;18.20;99.90;;;;;;4967552;28;20396;-86
2021/09/02 08:09:38;;;;;;;6.90;3.33;;;18.30;99.90;;;;;;4954109;28;20050;-85
2021/09/02 08:12:04;;;;;;;6.13;2.75;;;18.10;99.90;;;;;;4970181;28;20038;-86
2021/09/02 08:14:30;;;;;;;6.80;2.78;;;18.30;99.90;;;;;;4970248;28;20027;-86
2021/09/02 08:16:55;;;;;;;6.80;1.98;;;18.60;99.90;;;;;;4950788;28;20045;-87
2021/09/02 08:19:21;;;;;;;6.53;1.85;;;18.70;99.90;;;;;;4935395;29;20035;-86
2021/09/02 08:21:47;;;;;;;4.25;1.80;;;18.80;99.90;;;;;;4935558;29;20078;-86
2021/09/02 08:24:14;;;;;;;5.20;1.90;;;19.00;99.90;;;;;;4951150;29;20114;-86
2021/09/02 08:26:40;;;;;;;5.10;1.30;;;19.10;99.90;;;;;;4950954;29;20039;-87
2021/09/02 08:29:05;;;;;;;4.38;1.20;;;19.00;99.90;;;;;;4934651;29;20038;-86
2021/09/02 08:31:31;;;;;;;5.75;1.98;;;19.00;99.90;;;;;;4966749;29;20051;-85
2021/09/02 08:33:57;;;;;;;4.30;1.55;;;18.80;99.90;;;;;;4934725;29;20042;-86
2021/09/02 08:36:23;;;;;;;5.18;1.90;;;19.00;99.90;;;;;;4934398;29;20035;-86
2021/09/02 08:38:49;;;;;;;5.45;1.83;;;18.90;99.90;;;;;;4934330;29;20035;-86
2021/09/02 08:41:16;;;;;;;3.47;1.45;;;19.20;99.90;;;;;;4934570;29;20054;-86
2021/09/02 08:43:43;;;;;;;2.63;0.88;;;19.40;99.90;;;;;;4950300;29;20042;-86
2021/09/02 08:46:09;;;;;;;3.65;1.52;;;19.20;99.90;;;;;;4966714;29;20035;-85
2021/09/02 08:48:39;;;;;;;5.30;1.58;;;19.20;99.90;;;;;;4949838;29;20115;-85
2021/09/02 08:51:05;;;;;;;4.70;1.10;;;19.50;99.90;;;;;;4950412;29;20118;-85
2021/09/02 08:53:31;;;;;;;4.22;1.15;;;19.30;99.90;;;;;;4950345;29;20506;-86
2021/09/02 08:55:57;;;;;;;4.70;1.50;;;19.40;99.90;;;;;;4934108;29;20039;-84
2021/09/02 08:58:23;;;;;;;3.28;1.38;;;19.60;99.90;;;;;;4950082;29;20095;-84
2021/09/02 09:00:48;;;;;;;6.13;1.55;;;19.50;99.90;;;;;;4934023;29;20138;-85
2021/09/02 09:03:18;;;;;;;4.40;1.50;;;19.30;99.90;;;;;;4934104;29;20107;-85
2021/09/02 09:05:43;;;;;;;4.25;1.38;;;19.60;99.90;;;;;;4934281;29;20035;-86
2021/09/02 09:08:11;;;;;;;2.83;1.08;;;19.90;99.90;;;;;;4933906;29;20627;-85
2021/09/02 09:10:39;;;;;;;6.70;1.58;;;19.70;99.90;;;;;;4965685;29;20560;-86
2021/09/02 09:13:09;;;;;;;4.38;0.98;;;19.80;99.90;;;;;;4965960;29;20383;-85
2021/09/02 09:15:36;;;;;;;;;;;20.30;99.90;;;;;;4966422;28;20033;-86
2021/09/02 09:18:21;;;;;;;4.28;1.05;;;20.20;99.90;;;;;;4965548;29;19917;-85
2021/09/02 09:21:09;;;;;;;4.70;1.65;;;20.20;99.90;;;;;;4949843;29;20039;-85
2021/09/02 09:23:58;;;;;;;3.88;1.02;;;20.40;99.90;;;;;;4965535;29;20055;-86
2021/09/02 09:26:27;;;;;;;4.32;1.10;;;19.80;99.90;;;;;;4933858;29;20442;-85
2021/09/02 09:28:56;;;;;;;4.15;1.30;;;19.50;99.90;;;;;;4933448;29;20295;-86
2021/09/02 09:31:36;;;;;;;4.75;1.23;;;19.20;99.90;;;;;;4965713;28;20031;-85
2021/09/02 09:34:05;;;;;;;;;;;19.20;99.90;;;;;;4934051;29;20377;-85
2021/09/02 09:36:34;;;;;;;3.22;0.98;;;19.20;99.90;;;;;;4949733;29;19934;-85
2021/09/02 09:39:09;;;;;;;4.38;1.00;;;19.20;99.90;;;;;;4949203;29;20063;-85
2021/09/02 09:41:45;;;;;;;4.30;1.83;;;19.50;99.90;;;;;;4933510;29;20090;-85
2021/09/02 09:44:14;;;;;;;5.72;1.58;;;20.00;99.90;;;;;;4965283;29;20062;-85
2021/09/02 09:47:18;;;;;;;3.53;1.40;;;20.40;99.90;;;;;;4966748;29;20035;-85
2021/09/02 09:49:53;;;;;;;4.90;1.35;;;20.70;99.90;;;;;;4891660;29;20120;-85
2021/09/02 09:52:31;;;;;;;5.38;1.17;;;20.60;99.90;;;;;;4892601;29;20489;-85
2021/09/02 09:55:10;;;;;;;5.25;1.95;;;20.80;99.90;;;;;;4892481;29;20100;-85
2021/09/02 09:57:38;;;;;;;3.85;1.30;;;20.40;99.90;;;;;;4892503;29;20100;-85
2021/09/02 10:00:15;;;;;;;2.65;1.00;;;21.00;99.90;;;;;;4892282;29;20138;-85
2021/09/02 10:02:59;;;;;;;2.88;0.80;;;21.20;99.90;;;;;;5123103;27;20902;-84
2021/09/02 10:05:25;;;;;;;4.97;1.00;;;20.30;99.90;;;;;;5104795;28;20071;-83
2021/09/02 10:07:53;;;;;;;3.85;1.23;;;20.20;99.90;;;;;;5127515;28;20039;-83
2021/09/02 10:10:19;;;;;;;2.75;1.00;;;20.70;99.90;;;;;;5125187;28;20031;-83
2021/09/02 10:12:47;;;;;;;3.67;1.55;;;20.60;99.90;;;;;;5125338;28;20033;-83
2021/09/02 10:15:15;;;;;;;3.17;1.00;;;20.20;99.90;;;;;;5142329;28;20046;-84
2021/09/02 10:17:43;;;;;;;4.57;0.90;;;20.30;99.90;;;;;;5132401;28;20106;-83
2021/09/02 10:20:23;;;;;;;3.40;1.13;;;20.00;99.90;;;;;;5121537;28;20028;-84
2021/09/02 10:22:51;;;;;;;2.38;0.80;;;20.00;99.90;;;;;;5104561;28;20047;-83
2021/09/02 10:27:58;;;;;;;4.03;1.00;;;20.00;99.90;;;;;;5121463;28;20043;-84
2021/09/02 10:30:24;;;;;;;3.03;1.30;;;20.10;99.90;;;;;;5121375;28;20028;-84
2021/09/02 10:32:51;;;;;;;5.20;2.40;;;20.00;99.90;;;;;;5121575;28;20464;-83
2021/09/02 10:35:19;;;;;;;5.47;1.90;;;19.70;99.90;;;;;;5121359;28;20027;-84
2021/09/02 10:37:45;;;;;;;6.20;1.60;;;20.00;99.90;;;;;;5121626;28;20032;-83
2021/09/02 10:40:17;;;;;;;3.40;1.23;;;20.30;99.90;;;;;;5104025;28;20046;-83
2021/09/02 10:42:52;;;;;;;3.47;0.98;;;21.00;99.90;;;;;;5103927;28;20039;-83
2021/09/02 10:45:27;;;;;;;2.97;1.33;;;20.80;99.90;;;;;;5122411;28;20111;-83
2021/09/02 10:47:55;;;;;;;2.80;1.00;;;20.70;99.90;;;;;;5120934;28;20487;-83
2021/09/02 10:50:24;;;;;;;2.67;1.15;;;20.80;99.90;;;;;;5122116;28;20020;-84
2021/09/02 10:52:52;;;;;;;2.88;1.13;;;20.90;99.90;;;;;;5104042;28;20036;-83
2021/09/02 10:55:34;;;;;;;12.32;2.20;;;21.00;99.90;;;;;;5121028;28;20392;-84
2021/09/02 10:58:07;;;;;;;6.75;1.88;;;20.90;99.90;;;;;;5103624;28;20031;-83
2021/09/02 11:00:41;;;;;;;4.47;1.10;;;20.70;99.90;;;;;;5103458;28;20024;-83
2021/09/02 11:03:18;;;;;;;6.68;1.55;;;20.90;99.90;;;;;;5107175;28;20043;-84
2021/09/02 11:05:56;;;;;;;5.38;1.20;;;21.30;99.90;;;;;;5106917;28;20053;-84
2021/09/02 11:08:36;;;;;;;3.38;1.27;;;21.30;99.90;;;;;;5123740;28;20114;-83
2021/09/02 11:11:20;;;;;;;5.07;1.45;;;21.10;99.90;;;;;;5123911;28;20130;-84
2021/09/02 11:13:53;;;;;;;4.93;2.00;;;21.30;99.90;;;;;;5096309;28;20077;-84
2021/09/02 11:16:21;;;;;;;4.20;1.42;;;21.10;99.90;;;;;;5093096;28;20038;-85
2021/09/02 11:18:53;;;;;;;4.18;1.40;;;21.30;99.90;;;;;;5088108;28;20043;-85
2021/09/02 11:21:25;;;;;;;6.63;1.38;;;21.30;99.90;;;;;;5089294;28;20047;-86
2021/09/02 11:24:06;;;;;;;4.75;2.33;;;21.10;99.90;;;;;;5073105;28;20079;-85
2021/09/02 11:26:35;;;;;;;2.88;1.25;;;20.80;99.90;;;;;;5073094;28;20050;-85
2021/09/02 11:29:01;;;;;;;4.57;1.40;;;20.80;99.90;;;;;;5072723;28;20503;-84
2021/09/02 11:31:27;;;;;;;5.90;2.50;;;20.70;99.90;;;;;;5072746;28;20059;-84
2021/09/02 11:33:54;;;;;;;3.42;0.90;;;20.20;99.90;;;;;;5072872;28;20120;-85
2021/09/02 11:36:21;;;;;;;5.22;2.47;;;20.40;99.90;;;;;;5072877;28;20028;-84
2021/09/02 11:38:48;;;;;;;9.43;2.35;;;20.20;99.90;;;;;;5072292;28;20024;-84
2021/09/02 11:41:22;;;;;;;2.78;1.33;;;20.00;99.90;;;;;;5072725;28;20056;-84
2021/09/02 11:43:51;;;;;;;4.18;1.50;;;20.50;99.90;;;;;;5072796;28;20099;-86
2021/09/02 11:46:17;;;;;;;3.30;0.88;;;21.00;99.90;;;;;;5072776;28;20024;-85
2021/09/02 11:48:53;;;;;;;3.20;1.10;;;21.30;99.90;;;;;;5072591;28;20032;-82
2021/09/02 11:51:31;;;;;;;3.78;0.80;;;21.40;99.90;;;;;;5107295;28;20039;-82
2021/09/02 11:54:12;;;;;;;4.25;1.15;;;22.10;99.90;;;;;;5072271;28;20043;-81
2021/09/02 11:56:43;;;;;;;3.25;1.10;;;22.40;99.90;;;;;;5089095;28;20040;-81
2021/09/02 11:59:12;;;;;;;5.00;1.40;;;22.10;99.90;;;;;;5107007;28;20061;-81
2021/09/02 12:01:50;;;;;;;3.10;1.13;;;22.00;99.90;;;;;;5088602;28;20097;-82
2021/09/02 12:04:21;;;;;;;3.10;1.23;;;21.70;99.90;;;;;;5072313;28;20084;-81
2021/09/02 12:06:49;;;;;;;3.70;1.15;;;21.40;99.90;;;;;;5088759;28;20096;-81
2021/09/02 12:09:21;;;;;;;2.67;0.90;;;22.00;99.90;;;;;;5106019;28;20463;-81
2021/09/02 12:11:47;;;;;;;4.85;1.67;;;22.40;99.90;;;;;;5108978;28;20196;-80
2021/09/02 12:14:25;;;;;;;3.50;1.05;;;22.20;99.90;;;;;;5091778;28;20120;-81
2021/09/02 12:17:11;;;;;;;3.38;0.88;;;22.50;99.90;;;;;;5106045;28;20099;-81
2021/09/02 12:19:53;;;;;;;3.15;1.05;;;22.40;99.90;;;;;;5088396;28;20423;-82
2021/09/02 12:22:20;;;;;;;4.95;0.80;;;22.90;99.90;;;;;;5088443;28;20145;-81
2021/09/02 12:24:46;;;;;;;3.97;1.23;;;23.00;99.90;;;;;;5105735;28;20024;-81
2021/09/02 12:27:31;;;;;;;3.60;1.48;;;23.30;99.90;;;;;;5071797;28;20028;-83
2021/09/02 12:29:57;;;;;;;2.40;1.10;;;23.40;99.90;;;;;;5070476;28;20036;-82
2021/09/02 12:32:23;;;;;;;2.67;1.00;;;23.20;99.90;;;;;;5088389;28;20065;-82
2021/09/02 12:34:48;;;;;;;4.63;1.05;;;23.40;99.90;;;;;;5071786;28;20050;-82
2021/09/02 12:37:16;;;;;;;5.13;1.58;;;23.60;99.90;;;;;;5071777;28;20086;-82
2021/09/02 12:39:49;;;;;;;3.45;0.93;;;23.40;99.90;;;;;;5088115;28;20025;-81
2021/09/02 12:42:26;;;;;;;2.97;1.00;;;23.10;99.90;;;;;;5088068;28;20042;-81
2021/09/02 12:45:09;;;;;;;4.82;1.60;;;22.80;99.90;;;;;;5071137;28;20391;-80
2021/09/02 12:47:36;;;;;;;4.45;1.55;;;22.60;99.90;;;;;;5087852;28;20076;-81
2021/09/02 12:50:13;;;;;;;3.53;1.38;;;22.50;99.90;;;;;;5106044;28;20024;-81
2021/09/02 12:52:39;;;;;;;3.92;1.10;;;22.90;99.90;;;;;;5071197;28;20057;-81